createdAt,value
2023-06-14T00:03:15.641Z,14.50
2023-06-14T00:06:38.634Z,14.40
2023-06-14T00:10:00.250Z,14.40
2023-06-14T00:13:21.994Z,14.30
2023-06-14T00:16:43.985Z,14.30
2023-06-14T00:20:08.442Z,14.30
2023-06-14T00:23:31.498Z,14.30
2023-06-14T00:26:53.225Z,14.20
2023-06-14T00:30:15.456Z,14.20
2023-06-14T00:33:37.248Z,14.10
2023-06-14T00:36:58.869Z,14.10
2023-06-14T00:40:21.899Z,14.00
2023-06-14T00:43:43.772Z,14.00
2023-06-14T00:47:05.653Z,13.90
2023-06-14T00:50:27.282Z,13.90
2023-06-14T00:53:49.082Z,13.80
2023-06-14T00:57:12.937Z,13.80
2023-06-14T01:00:35.763Z,13.80
2023-06-14T01:03:57.560Z,13.70
2023-06-14T01:07:22.169Z,13.60
2023-06-14T01:10:48.153Z,13.60
2023-06-14T01:14:12.196Z,13.50
2023-06-14T01:17:33.929Z,13.50
2023-06-14T01:20:55.565Z,13.50
2023-06-14T01:24:18.837Z,13.50
2023-06-14T01:27:40.723Z,13.50
2023-06-14T01:31:03.746Z,13.50
2023-06-14T01:34:25.501Z,13.40
2023-06-14T01:37:48.118Z,13.30
2023-06-14T01:41:11.544Z,13.30
2023-06-14T01:44:33.965Z,13.20
2023-06-14T01:47:55.712Z,13.10
2023-06-14T01:51:17.690Z,13.10
2023-06-14T01:54:39.353Z,13.00
2023-06-14T01:58:02.325Z,13.00
2023-06-14T02:01:24.027Z,12.90
2023-06-14T02:04:45.774Z,12.90
2023-06-14T02:08:07.689Z,12.80
2023-06-14T02:11:29.294Z,12.70
2023-06-14T02:14:52.862Z,12.70
2023-06-14T02:18:14.594Z,12.70
2023-06-14T02:21:36.386Z,12.60
2023-06-14T02:25:02.477Z,12.60
2023-06-14T02:28:24.718Z,12.60
2023-06-14T02:31:47.865Z,12.50
2023-06-14T02:35:09.992Z,12.50
2023-06-14T02:38:32.719Z,12.50
2023-06-14T02:41:55.190Z,12.50
2023-06-14T02:45:17.074Z,12.50
2023-06-14T02:48:40.235Z,12.40
2023-06-14T02:52:02.096Z,12.40
2023-06-14T02:55:23.887Z,12.40
2023-06-14T02:58:45.744Z,12.30
2023-06-14T03:02:08.165Z,12.30
2023-06-14T03:05:31.236Z,12.30
2023-06-14T03:08:52.868Z,12.20
2023-06-14T03:12:14.569Z,12.20
2023-06-14T03:15:40.644Z,12.20
2023-06-14T03:19:02.286Z,12.20
2023-06-14T03:22:25.289Z,12.10
2023-06-14T03:25:48.986Z,12.10
2023-06-14T03:29:10.761Z,12.20
2023-06-14T03:32:32.438Z,12.20
2023-06-14T03:35:54.667Z,12.20
2023-06-14T03:39:17.656Z,12.20
2023-06-14T03:42:39.293Z,12.20
2023-06-14T03:46:01.214Z,12.20
2023-06-14T03:49:23.541Z,12.20
2023-06-14T03:52:45.241Z,12.30
2023-06-14T03:56:08.204Z,12.30
2023-06-14T03:59:29.829Z,12.30
2023-06-14T04:02:51.519Z,12.40
2023-06-14T04:06:13.204Z,12.50
2023-06-14T04:09:34.829Z,12.60
2023-06-14T04:12:57.797Z,12.80
2023-06-14T04:16:19.501Z,12.80
2023-06-14T04:19:41.181Z,12.90
2023-06-14T04:23:12.117Z,13.00
2023-06-14T04:26:33.880Z,13.00
2023-06-14T04:29:56.948Z,13.10
2023-06-14T04:33:19.039Z,13.30
2023-06-14T04:36:40.824Z,13.40
2023-06-14T04:40:02.474Z,13.60
2023-06-14T04:43:24.104Z,14.00
2023-06-14T04:46:48.058Z,14.60
2023-06-14T04:50:10.530Z,15.30
2023-06-14T04:53:32.147Z,15.80
2023-06-14T04:56:53.888Z,16.30
2023-06-14T05:00:16.012Z,17.60
2023-06-14T05:03:39.280Z,19.30
2023-06-14T05:07:00.960Z,20.90
2023-06-14T05:10:22.573Z,22.10
2023-06-14T05:13:44.228Z,23.50
2023-06-14T05:17:06.195Z,23.90
2023-06-14T05:20:29.193Z,24.40
2023-06-14T05:23:50.834Z,25.00
2023-06-14T05:27:12.550Z,25.60
2023-06-14T05:30:34.176Z,26.00
2023-06-14T05:33:56.177Z,26.80
2023-06-14T05:37:19.179Z,27.00
2023-06-14T05:40:40.779Z,27.40
2023-06-14T05:44:02.413Z,28.30
2023-06-14T05:47:24.195Z,29.00
2023-06-14T05:50:45.877Z,29.00
2023-06-14T05:54:08.891Z,29.00
2023-06-14T05:57:30.741Z,29.30
2023-06-14T06:00:52.456Z,29.80
2023-06-14T06:04:14.093Z,30.40
2023-06-14T06:07:37.962Z,30.50
2023-06-14T06:11:01.164Z,31.20
2023-06-14T06:14:22.773Z,30.80
2023-06-14T06:17:55.603Z,30.80
2023-06-14T06:21:18.454Z,31.00
2023-06-14T06:24:40.118Z,30.70
2023-06-14T06:28:03.197Z,30.60
2023-06-14T06:31:24.928Z,30.70
2023-06-14T06:34:46.571Z,30.50
2023-06-14T06:38:08.208Z,30.40
2023-06-14T06:41:29.828Z,30.80
2023-06-14T06:44:52.819Z,30.80
2023-06-14T06:48:14.541Z,30.90
2023-06-14T06:51:36.456Z,30.80
2023-06-14T06:54:58.073Z,31.00
2023-06-14T06:58:19.695Z,32.30
2023-06-14T07:01:42.705Z,32.80
2023-06-14T07:05:04.613Z,32.50
2023-06-14T07:08:26.276Z,32.20
2023-06-14T07:11:47.988Z,32.10
2023-06-14T07:15:10.144Z,31.80
2023-06-14T07:18:33.096Z,31.90
2023-06-14T07:21:54.729Z,33.00
2023-06-14T07:25:17.103Z,32.10
2023-06-14T07:28:39.075Z,32.10
2023-06-14T07:32:00.740Z,32.40
2023-06-14T07:35:23.709Z,32.30
2023-06-14T07:38:45.339Z,33.10
2023-06-14T07:42:07.500Z,33.70
2023-06-14T07:45:30.397Z,34.00
2023-06-14T07:48:52.101Z,33.40
2023-06-14T07:52:15.169Z,33.00
2023-06-14T07:55:49.400Z,32.00
2023-06-14T07:59:15.019Z,32.10
2023-06-14T08:02:36.755Z,32.20
2023-06-14T08:05:58.658Z,32.50
2023-06-14T08:09:21.671Z,32.60
2023-06-14T08:12:43.311Z,32.80
2023-06-14T08:16:05.273Z,32.90
2023-06-14T08:19:27.027Z,33.20
2023-06-14T08:22:48.649Z,33.60
2023-06-14T08:26:11.682Z,34.00
2023-06-14T08:29:33.322Z,34.10
2023-06-14T08:33:06.017Z,34.10
2023-06-14T08:36:36.380Z,34.00
2023-06-14T08:39:58.002Z,33.20
2023-06-14T08:43:21.084Z,33.10
2023-06-14T08:46:42.784Z,32.20
2023-06-14T08:53:27.390Z,30.90
2023-06-14T08:56:49.015Z,31.20
2023-06-14T09:00:13.911Z,30.90
2023-06-14T09:03:35.715Z,30.60
2023-06-14T09:06:57.395Z,30.30
2023-06-14T09:10:19.227Z,29.90
2023-06-14T09:13:41.423Z,29.90
2023-06-14T09:17:04.790Z,29.70
2023-06-14T09:20:26.453Z,29.10
2023-06-14T09:23:49.838Z,28.90
2023-06-14T09:27:15.573Z,29.30
2023-06-14T09:30:37.629Z,28.80
2023-06-14T09:34:03.028Z,28.60
2023-06-14T09:37:28.221Z,28.80
2023-06-14T09:40:50.717Z,29.50
2023-06-14T09:44:15.946Z,29.70
2023-06-14T09:47:44.640Z,29.50
2023-06-14T09:51:16.499Z,28.50
2023-06-14T09:54:41.481Z,28.30
2023-06-14T09:58:05.177Z,28.20
2023-06-14T10:01:27.679Z,28.50
2023-06-14T10:04:52.970Z,28.90
2023-06-14T10:08:17.084Z,28.60
2023-06-14T10:11:38.918Z,28.40
2023-06-14T10:15:01.922Z,28.80
2023-06-14T10:18:28.900Z,29.20
2023-06-14T10:21:56.144Z,29.00
2023-06-14T10:25:28.898Z,29.40
2023-06-14T10:29:00.796Z,29.30
2023-06-14T10:32:23.072Z,29.10
2023-06-14T10:35:44.795Z,29.00
2023-06-14T10:39:07.279Z,28.50
2023-06-14T10:42:33.025Z,28.10
2023-06-14T10:46:14.967Z,27.90
2023-06-14T10:49:40.899Z,27.50
2023-06-14T10:53:22.546Z,26.60
2023-06-14T10:56:47.107Z,26.00
2023-06-14T11:00:10.933Z,25.60
2023-06-14T11:03:44.370Z,25.30
2023-06-14T11:07:11.168Z,25.70
2023-06-14T11:10:37.233Z,26.00
2023-06-14T11:14:00.659Z,25.50
2023-06-14T11:17:23.724Z,25.30
2023-06-14T11:20:47.377Z,25.40
2023-06-14T11:24:11.188Z,25.50
2023-06-14T11:27:33.702Z,25.70
2023-06-14T11:31:00.818Z,26.00
2023-06-14T11:34:23.856Z,25.90
2023-06-14T11:37:46.028Z,25.70
2023-06-14T11:41:07.720Z,25.40
2023-06-14T11:44:29.482Z,25.10
2023-06-14T11:47:51.224Z,25.20
2023-06-14T11:51:14.301Z,25.30
2023-06-14T11:54:35.995Z,25.20
2023-06-14T11:57:57.645Z,24.70
2023-06-14T12:01:19.995Z,24.80
2023-06-14T12:04:41.865Z,25.00
2023-06-14T12:08:05.539Z,25.20
2023-06-14T12:11:29.289Z,25.40
2023-06-14T12:14:51.215Z,25.30
2023-06-14T12:18:12.919Z,25.20
2023-06-14T12:21:34.706Z,25.40
2023-06-14T12:24:57.825Z,25.70
2023-06-14T12:28:19.501Z,25.70
2023-06-14T12:31:41.230Z,25.10
2023-06-14T12:35:02.962Z,24.80
2023-06-14T12:38:24.944Z,24.70
2023-06-14T12:41:48.065Z,24.70
2023-06-14T12:45:10.186Z,24.90
2023-06-14T12:48:31.858Z,25.00
2023-06-14T12:51:53.458Z,24.90
2023-06-14T12:55:15.148Z,25.10
2023-06-14T12:58:38.226Z,25.60
2023-06-14T13:02:00.909Z,25.90
2023-06-14T13:05:22.556Z,25.90
2023-06-14T13:08:44.205Z,26.00
2023-06-14T13:12:06.162Z,25.50
2023-06-14T13:15:29.189Z,25.00
2023-06-14T13:18:50.841Z,24.60
2023-06-14T13:22:12.639Z,24.30
2023-06-14T13:25:35.043Z,24.30
2023-06-14T13:28:56.711Z,24.40
2023-06-14T13:32:19.872Z,24.60
2023-06-14T13:35:41.555Z,24.80
2023-06-14T13:39:03.249Z,25.00
2023-06-14T13:42:24.870Z,25.10
2023-06-14T13:45:46.502Z,25.30
2023-06-14T13:49:09.527Z,25.40
2023-06-14T13:52:31.273Z,25.70
2023-06-14T13:55:53.093Z,25.70
2023-06-14T13:59:14.709Z,25.50
2023-06-14T14:02:36.410Z,25.20
2023-06-14T14:05:59.442Z,24.90
2023-06-14T14:09:22.218Z,24.80
2023-06-14T14:12:43.868Z,25.00
2023-06-14T14:16:05.837Z,24.80
2023-06-14T14:19:27.581Z,24.50
2023-06-14T14:22:50.582Z,24.30
2023-06-14T14:26:12.213Z,24.10
2023-06-14T14:29:33.864Z,24.20
2023-06-14T14:32:55.586Z,24.30
2023-06-14T14:36:17.397Z,24.60
2023-06-14T14:39:40.358Z,25.00
2023-06-14T14:43:02.040Z,25.20
2023-06-14T14:46:23.681Z,25.40
2023-06-14T14:49:45.299Z,25.50
2023-06-14T14:53:07.032Z,25.40
2023-06-14T14:56:29.997Z,25.40
2023-06-14T14:59:51.630Z,25.30
2023-06-14T15:03:13.560Z,25.20
2023-06-14T15:06:35.637Z,25.10
2023-06-14T15:09:57.875Z,25.00
2023-06-14T15:13:20.811Z,25.00
2023-06-14T15:16:42.467Z,25.00
2023-06-14T15:20:04.519Z,24.90
2023-06-14T15:23:26.209Z,24.90
2023-06-14T15:26:47.974Z,24.90
2023-06-14T15:30:11.774Z,24.90
2023-06-14T15:33:34.036Z,25.00
2023-06-14T15:36:55.652Z,25.00
2023-06-14T15:40:17.749Z,25.10
2023-06-14T15:43:39.651Z,25.20
2023-06-14T15:47:02.926Z,25.30
2023-06-14T15:50:24.550Z,25.40
2023-06-14T15:53:46.149Z,25.40
2023-06-14T15:57:07.828Z,25.20
2023-06-14T16:00:29.441Z,25.00
2023-06-14T16:03:52.601Z,24.90
2023-06-14T16:07:14.659Z,24.90
2023-06-14T16:10:36.309Z,24.70
2023-06-14T16:13:57.962Z,24.70
2023-06-14T16:17:19.593Z,24.70
2023-06-14T16:20:42.693Z,24.50
2023-06-14T16:24:04.787Z,24.50
2023-06-14T16:27:26.409Z,24.60
2023-06-14T16:30:48.046Z,24.60
2023-06-14T16:34:09.683Z,24.60
2023-06-14T16:37:32.731Z,24.50
2023-06-14T16:40:54.429Z,24.50
2023-06-14T16:44:16.145Z,24.50
2023-06-14T16:47:37.831Z,24.40
2023-06-14T16:50:59.506Z,24.40
2023-06-14T16:54:22.525Z,24.40
2023-06-14T16:57:44.147Z,24.20
2023-06-14T17:01:06.509Z,24.00
2023-06-14T17:04:28.205Z,24.00
2023-06-14T17:07:49.886Z,24.00
2023-06-14T17:11:12.910Z,24.00
2023-06-14T17:14:34.542Z,24.00
2023-06-14T17:17:56.381Z,24.10
2023-06-14T17:21:18.021Z,24.20
2023-06-14T17:24:39.746Z,24.10
2023-06-14T17:28:02.757Z,24.20
2023-06-14T17:31:24.418Z,24.30
2023-06-14T17:34:46.166Z,24.30
2023-06-14T17:38:07.796Z,24.20
2023-06-14T17:41:30.737Z,24.10
2023-06-14T17:44:54.794Z,24.00
2023-06-14T17:48:16.449Z,23.90
2023-06-14T17:51:38.101Z,23.80
2023-06-14T17:55:00.859Z,23.70
2023-06-14T17:58:22.538Z,23.70
2023-06-14T18:01:45.565Z,23.60
2023-06-14T18:05:07.500Z,23.40
2023-06-14T18:08:29.222Z,23.20
2023-06-14T18:11:50.955Z,23.10
2023-06-14T18:15:12.596Z,23.00
2023-06-14T18:18:35.703Z,22.80
2023-06-14T18:21:57.402Z,22.70
2023-06-14T18:25:19.186Z,22.60
2023-06-14T18:28:41.032Z,22.50
2023-06-14T18:32:02.860Z,22.40
2023-06-14T18:35:25.993Z,22.20
2023-06-14T18:38:47.712Z,22.20
2023-06-14T18:42:09.381Z,22.10
2023-06-14T18:45:31.111Z,22.00
2023-06-14T18:48:52.740Z,21.80
2023-06-14T18:52:15.791Z,21.70
2023-06-14T18:55:37.430Z,21.60
2023-06-14T18:58:59.075Z,21.50
2023-06-14T19:02:20.772Z,21.40
2023-06-14T19:05:42.548Z,21.20
2023-06-14T19:09:05.521Z,21.20
2023-06-14T19:12:27.145Z,21.00
2023-06-14T19:15:48.757Z,20.90
2023-06-14T19:19:10.659Z,20.80
2023-06-14T19:22:32.437Z,20.70
2023-06-14T19:25:55.495Z,20.60
2023-06-14T19:29:17.375Z,20.50
2023-06-14T19:32:39.369Z,20.30
2023-06-14T19:36:01.226Z,20.20
2023-06-14T19:39:22.860Z,20.10
2023-06-14T19:42:45.842Z,20.00
2023-06-14T19:46:07.512Z,19.90
2023-06-14T19:49:29.172Z,19.70
2023-06-14T19:52:50.894Z,19.70
2023-06-14T19:56:12.567Z,19.60
2023-06-14T19:59:35.573Z,19.50
2023-06-14T20:02:57.531Z,19.40
2023-06-14T20:06:19.266Z,19.30
2023-06-14T20:09:40.921Z,19.20
2023-06-14T20:13:02.707Z,19.10
2023-06-14T20:16:25.775Z,19.00
2023-06-14T20:19:47.512Z,19.00
2023-06-14T20:23:09.304Z,18.90
2023-06-14T20:26:31.117Z,18.90
2023-06-14T20:29:53.386Z,18.80
2023-06-14T20:33:16.390Z,18.80
2023-06-14T20:36:38.030Z,18.80
2023-06-14T20:39:59.685Z,18.70
2023-06-14T20:43:21.300Z,18.70
2023-06-14T20:46:43.033Z,18.60
2023-06-14T20:50:07.096Z,18.50
2023-06-14T20:53:30.448Z,18.40
2023-06-14T20:56:52.363Z,18.30
2023-06-14T21:00:14.838Z,18.30
2023-06-14T21:03:36.867Z,18.20
2023-06-14T21:06:59.884Z,18.20
2023-06-14T21:10:21.591Z,18.20
2023-06-14T21:13:43.646Z,18.10
2023-06-14T21:17:05.637Z,18.10
2023-06-14T21:20:27.245Z,17.90
2023-06-14T21:23:50.255Z,17.80
2023-06-14T21:27:12.720Z,17.70
2023-06-14T21:30:36.697Z,17.60
2023-06-14T21:33:59.957Z,17.50
2023-06-14T21:37:22.452Z,17.40
2023-06-14T21:40:45.579Z,17.40
2023-06-14T21:44:07.277Z,17.30
2023-06-14T21:47:28.972Z,17.20
2023-06-14T21:50:51.182Z,17.20
2023-06-14T21:54:12.893Z,17.10
2023-06-14T21:57:37.800Z,17.00
2023-06-14T22:00:59.739Z,17.00
2023-06-14T22:04:22.284Z,16.90
2023-06-14T22:07:44.130Z,16.80
2023-06-14T22:11:05.761Z,16.80
2023-06-14T22:14:28.720Z,16.70
2023-06-14T22:17:50.402Z,16.60
2023-06-14T22:21:12.387Z,16.50
2023-06-14T22:24:34.194Z,16.50
2023-06-14T22:27:55.852Z,16.50
2023-06-14T22:31:18.848Z,16.40
2023-06-14T22:34:40.462Z,16.50
2023-06-14T22:38:02.079Z,16.40
2023-06-14T22:41:23.708Z,16.40
2023-06-14T22:44:46.751Z,16.30
2023-06-14T22:48:09.765Z,16.20
2023-06-14T22:51:34.185Z,16.20
2023-06-14T22:54:56.747Z,16.00
2023-06-14T22:58:18.368Z,16.10
2023-06-14T23:01:40.006Z,16.00
2023-06-14T23:05:03.196Z,15.90
2023-06-14T23:08:25.680Z,15.80
2023-06-14T23:11:47.798Z,15.80
2023-06-14T23:15:09.929Z,15.70
2023-06-14T23:18:31.738Z,15.70
2023-06-14T23:21:55.828Z,15.70
2023-06-14T23:25:18.030Z,15.70
2023-06-14T23:28:39.887Z,15.60
2023-06-14T23:32:01.736Z,15.60
2023-06-14T23:35:23.374Z,15.60
2023-06-14T23:38:46.332Z,15.50
2023-06-14T23:42:08.625Z,15.50
2023-06-14T23:45:30.238Z,15.40
2023-06-14T23:48:52.049Z,15.30
2023-06-14T23:52:13.701Z,15.30
2023-06-14T23:55:36.692Z,15.30
2023-06-14T23:58:59.027Z,15.20
